sensor_id;sensor_type;location;lat;lon;timestamp;P1;durP1;ratioP1;P2;durP2;ratioP2
19877;SDS011;10101;52.204;9.910;2023-11-21T00:02:11;14.73;;;7.03;;
19877;SDS011;10101;52.204;9.910;2023-11-21T00:04:38;14.10;;;7.37;;
19877;SDS011;10101;52.204;9.910;2023-11-21T00:07:04;15.60;;;7.77;;
19877;SDS011;10101;52.204;9.910;2023-11-21T00:09:31;15.80;;;7.50;;
19877;SDS011;10101;52.204;9.910;2023-11-21T00:11:58;11.37;;;6.80;;
19877;SDS011;10101;52.204;9.910;2023-11-21T00:14:25;16.93;;;7.73;;
19877;SDS011;10101;52.204;9.910;2023-11-21T00:16:53;18.53;;;7.83;;
19877;SDS011;10101;52.204;9.910;2023-11-21T00:19:20;19.77;;;8.13;;
19877;SDS011;10101;52.204;9.910;2023-11-21T00:21:46;14.50;;;8.07;;
19877;SDS011;10101;52.204;9.910;2023-11-21T00:24:13;16.30;;;7.83;;
19877;SDS011;10101;52.204;9.910;2023-11-21T00:26:40;17.53;;;7.80;;
19877;SDS011;10101;52.204;9.910;2023-11-21T00:29:06;18.30;;;7.63;;
19877;SDS011;10101;52.204;9.910;2023-11-21T00:31:34;16.70;;;7.67;;
19877;SDS011;10101;52.204;9.910;2023-11-21T00:34:03;17.03;;;7.93;;
19877;SDS011;10101;52.204;9.910;2023-11-21T00:36:30;17.73;;;8.20;;
19877;SDS011;10101;52.204;9.910;2023-11-21T00:38:57;16.10;;;8.60;;
19877;SDS011;10101;52.204;9.910;2023-11-21T00:41:24;13.83;;;7.80;;
19877;SDS011;10101;52.204;9.910;2023-11-21T00:43:52;16.77;;;8.10;;
19877;SDS011;10101;52.204;9.910;2023-11-21T00:46:19;21.40;;;9.10;;
19877;SDS011;10101;52.204;9.910;2023-11-21T00:48:46;17.10;;;8.87;;
19877;SDS011;10101;52.204;9.910;2023-11-21T00:51:14;15.60;;;8.43;;
19877;SDS011;10101;52.204;9.910;2023-11-21T00:53:40;21.03;;;8.80;;
19877;SDS011;10101;52.204;9.910;2023-11-21T00:56:08;19.43;;;7.73;;
19877;SDS011;10101;52.204;9.910;2023-11-21T00:58:36;21.97;;;8.60;;
19877;SDS011;10101;52.204;9.910;2023-11-21T01:01:03;19.43;;;9.00;;
19877;SDS011;10101;52.204;9.910;2023-11-21T01:03:31;20.43;;;8.30;;
19877;SDS011;10101;52.204;9.910;2023-11-21T01:05:57;19.30;;;8.70;;
19877;SDS011;10101;52.204;9.910;2023-11-21T01:08:25;15.70;;;8.33;;
19877;SDS011;10101;52.204;9.910;2023-11-21T01:10:52;21.57;;;8.00;;
19877;SDS011;10101;52.204;9.910;2023-11-21T01:13:19;20.53;;;9.80;;
19877;SDS011;10101;52.204;9.910;2023-11-21T01:15:46;21.13;;;9.50;;
19877;SDS011;10101;52.204;9.910;2023-11-21T01:18:13;19.60;;;9.07;;
19877;SDS011;10101;52.204;9.910;2023-11-21T01:20:42;17.73;;;8.90;;
19877;SDS011;10101;52.204;9.910;2023-11-21T01:23:13;20.23;;;10.10;;
19877;SDS011;10101;52.204;9.910;2023-11-21T01:25:42;15.20;;;8.70;;
19877;SDS011;10101;52.204;9.910;2023-11-21T01:28:08;21.67;;;9.40;;
19877;SDS011;10101;52.204;9.910;2023-11-21T01:30:35;16.90;;;8.23;;
19877;SDS011;10101;52.204;9.910;2023-11-21T01:33:02;18.43;;;10.00;;
19877;SDS011;10101;52.204;9.910;2023-11-21T01:35:29;17.10;;;9.50;;
19877;SDS011;10101;52.204;9.910;2023-11-21T01:37:56;16.77;;;9.50;;
19877;SDS011;10101;52.204;9.910;2023-11-21T01:40:23;19.40;;;8.93;;
19877;SDS011;10101;52.204;9.910;2023-11-21T01:42:52;15.93;;;8.57;;
19877;SDS011;10101;52.204;9.910;2023-11-21T01:45:19;17.20;;;8.00;;
19877;SDS011;10101;52.204;9.910;2023-11-21T01:47:46;14.93;;;8.87;;
19877;SDS011;10101;52.204;9.910;2023-11-21T01:50:14;18.33;;;9.23;;
19877;SDS011;10101;52.204;9.910;2023-11-21T01:52:42;24.57;;;9.27;;
19877;SDS011;10101;52.204;9.910;2023-11-21T01:55:14;17.17;;;9.50;;
19877;SDS011;10101;52.204;9.910;2023-11-21T01:57:43;23.40;;;10.07;;
19877;SDS011;10101;52.204;9.910;2023-11-21T02:00:11;22.77;;;9.70;;
19877;SDS011;10101;52.204;9.910;2023-11-21T02:02:41;18.17;;;9.33;;
19877;SDS011;10101;52.204;9.910;2023-11-21T02:05:09;16.70;;;9.33;;
19877;SDS011;10101;52.204;9.910;2023-11-21T02:07:37;22.80;;;9.80;;
19877;SDS011;10101;52.204;9.910;2023-11-21T02:10:05;18.90;;;9.30;;
19877;SDS011;10101;52.204;9.910;2023-11-21T02:12:32;18.87;;;9.17;;
19877;SDS011;10101;52.204;9.910;2023-11-21T02:15:00;19.30;;;9.17;;
19877;SDS011;10101;52.204;9.910;2023-11-21T02:17:29;18.27;;;9.80;;
19877;SDS011;10101;52.204;9.910;2023-11-21T02:19:57;20.83;;;10.77;;
19877;SDS011;10101;52.204;9.910;2023-11-21T02:22:24;21.10;;;9.80;;
19877;SDS011;10101;52.204;9.910;2023-11-21T02:24:57;21.33;;;10.07;;
19877;SDS011;10101;52.204;9.910;2023-11-21T02:27:23;20.97;;;9.47;;
19877;SDS011;10101;52.204;9.910;2023-11-21T02:29:52;19.00;;;9.57;;
19877;SDS011;10101;52.204;9.910;2023-11-21T02:32:19;19.77;;;10.40;;
19877;SDS011;10101;52.204;9.910;2023-11-21T02:34:47;21.83;;;9.73;;
19877;SDS011;10101;52.204;9.910;2023-11-21T02:37:14;24.97;;;9.93;;
19877;SDS011;10101;52.204;9.910;2023-11-21T02:39:41;19.80;;;9.73;;
19877;SDS011;10101;52.204;9.910;2023-11-21T02:42:09;21.97;;;10.73;;
19877;SDS011;10101;52.204;9.910;2023-11-21T02:44:36;21.33;;;10.77;;
19877;SDS011;10101;52.204;9.910;2023-11-21T02:47:03;19.40;;;10.27;;
19877;SDS011;10101;52.204;9.910;2023-11-21T02:49:30;22.97;;;10.27;;
19877;SDS011;10101;52.204;9.910;2023-11-21T02:51:57;23.47;;;10.40;;
19877;SDS011;10101;52.204;9.910;2023-11-21T02:54:23;20.27;;;9.97;;
19877;SDS011;10101;52.204;9.910;2023-11-21T02:56:52;19.77;;;10.20;;
19877;SDS011;10101;52.204;9.910;2023-11-21T02:59:20;19.27;;;10.40;;
19877;SDS011;10101;52.204;9.910;2023-11-21T03:01:47;20.73;;;10.70;;
19877;SDS011;10101;52.204;9.910;2023-11-21T03:04:14;19.27;;;9.93;;
19877;SDS011;10101;52.204;9.910;2023-11-21T03:06:42;26.97;;;11.17;;
19877;SDS011;10101;52.204;9.910;2023-11-21T03:09:09;25.50;;;11.53;;
19877;SDS011;10101;52.204;9.910;2023-11-21T03:11:37;22.27;;;10.90;;
19877;SDS011;10101;52.204;9.910;2023-11-21T03:14:03;26.47;;;12.00;;
19877;SDS011;10101;52.204;9.910;2023-11-21T03:16:32;22.60;;;11.17;;
19877;SDS011;10101;52.204;9.910;2023-11-21T03:18:59;21.67;;;10.97;;
19877;SDS011;10101;52.204;9.910;2023-11-21T03:21:26;28.03;;;12.13;;
19877;SDS011;10101;52.204;9.910;2023-11-21T03:23:54;23.97;;;11.47;;
19877;SDS011;10101;52.204;9.910;2023-11-21T03:26:21;24.73;;;11.57;;
19877;SDS011;10101;52.204;9.910;2023-11-21T03:28:47;25.03;;;11.33;;
19877;SDS011;10101;52.204;9.910;2023-11-21T03:31:15;25.90;;;12.17;;
19877;SDS011;10101;52.204;9.910;2023-11-21T03:33:44;25.53;;;11.70;;
19877;SDS011;10101;52.204;9.910;2023-11-21T03:36:12;26.17;;;12.03;;
19877;SDS011;10101;52.204;9.910;2023-11-21T03:38:41;26.63;;;12.03;;
19877;SDS011;10101;52.204;9.910;2023-11-21T03:41:07;25.80;;;12.50;;
19877;SDS011;10101;52.204;9.910;2023-11-21T03:43:35;29.10;;;12.77;;
19877;SDS011;10101;52.204;9.910;2023-11-21T03:46:02;25.60;;;12.00;;
19877;SDS011;10101;52.204;9.910;2023-11-21T03:48:29;27.10;;;12.03;;
19877;SDS011;10101;52.204;9.910;2023-11-21T03:50:59;24.23;;;12.77;;
19877;SDS011;10101;52.204;9.910;2023-11-21T03:53:26;22.57;;;12.07;;
19877;SDS011;10101;52.204;9.910;2023-11-21T03:55:53;26.40;;;12.53;;
19877;SDS011;10101;52.204;9.910;2023-11-21T03:58:19;25.53;;;11.30;;
19877;SDS011;10101;52.204;9.910;2023-11-21T04:00:46;26.60;;;12.47;;
19877;SDS011;10101;52.204;9.910;2023-11-21T04:03:14;24.57;;;11.97;;
19877;SDS011;10101;52.204;9.910;2023-11-21T04:05:40;25.63;;;13.23;;
19877;SDS011;10101;52.204;9.910;2023-11-21T04:08:08;29.87;;;12.90;;
19877;SDS011;10101;52.204;9.910;2023-11-21T04:10:35;29.13;;;13.80;;
19877;SDS011;10101;52.204;9.910;2023-11-21T04:13:04;29.57;;;12.30;;
19877;SDS011;10101;52.204;9.910;2023-11-21T04:15:31;28.20;;;12.73;;
19877;SDS011;10101;52.204;9.910;2023-11-21T04:17:58;25.50;;;11.70;;
19877;SDS011;10101;52.204;9.910;2023-11-21T04:20:25;24.07;;;12.87;;
19877;SDS011;10101;52.204;9.910;2023-11-21T04:22:52;24.23;;;11.67;;
19877;SDS011;10101;52.204;9.910;2023-11-21T04:25:20;29.97;;;11.90;;
19877;SDS011;10101;52.204;9.910;2023-11-21T04:27:48;26.43;;;12.20;;
19877;SDS011;10101;52.204;9.910;2023-11-21T04:30:15;24.80;;;11.70;;
19877;SDS011;10101;52.204;9.910;2023-11-21T04:32:42;31.10;;;12.50;;
19877;SDS011;10101;52.204;9.910;2023-11-21T04:35:09;27.70;;;12.73;;
19877;SDS011;10101;52.204;9.910;2023-11-21T04:37:36;24.37;;;12.23;;
19877;SDS011;10101;52.204;9.910;2023-11-21T04:40:03;22.60;;;12.10;;
19877;SDS011;10101;52.204;9.910;2023-11-21T04:42:33;31.87;;;11.93;;
19877;SDS011;10101;52.204;9.910;2023-11-21T04:45:01;23.43;;;12.30;;
19877;SDS011;10101;52.204;9.910;2023-11-21T04:47:30;22.53;;;12.40;;
19877;SDS011;10101;52.204;9.910;2023-11-21T04:49:56;30.23;;;13.20;;
19877;SDS011;10101;52.204;9.910;2023-11-21T04:52:23;26.57;;;11.67;;
19877;SDS011;10101;52.204;9.910;2023-11-21T04:54:50;32.20;;;13.17;;
19877;SDS011;10101;52.204;9.910;2023-11-21T04:57:19;26.80;;;12.93;;
19877;SDS011;10101;52.204;9.910;2023-11-21T04:59:48;25.00;;;12.97;;
19877;SDS011;10101;52.204;9.910;2023-11-21T05:02:15;27.30;;;13.00;;
19877;SDS011;10101;52.204;9.910;2023-11-21T05:04:44;26.70;;;12.67;;
19877;SDS011;10101;52.204;9.910;2023-11-21T05:07:11;27.57;;;12.40;;
19877;SDS011;10101;52.204;9.910;2023-11-21T05:09:40;25.63;;;12.70;;
19877;SDS011;10101;52.204;9.910;2023-11-21T05:12:09;26.60;;;12.10;;
19877;SDS011;10101;52.204;9.910;2023-11-21T05:14:35;26.10;;;12.17;;
19877;SDS011;10101;52.204;9.910;2023-11-21T05:17:04;27.53;;;12.47;;
19877;SDS011;10101;52.204;9.910;2023-11-21T05:19:32;27.93;;;12.63;;
19877;SDS011;10101;52.204;9.910;2023-11-21T05:21:59;25.60;;;12.03;;
19877;SDS011;10101;52.204;9.910;2023-11-21T05:24:26;27.87;;;12.13;;
19877;SDS011;10101;52.204;9.910;2023-11-21T05:26:53;26.27;;;12.57;;
19877;SDS011;10101;52.204;9.910;2023-11-21T05:29:21;25.50;;;13.33;;
19877;SDS011;10101;52.204;9.910;2023-11-21T05:31:48;27.80;;;12.50;;
19877;SDS011;10101;52.204;9.910;2023-11-21T05:34:16;24.80;;;12.87;;
19877;SDS011;10101;52.204;9.910;2023-11-21T05:36:43;26.73;;;12.57;;
19877;SDS011;10101;52.204;9.910;2023-11-21T05:39:10;26.70;;;12.50;;
19877;SDS011;10101;52.204;9.910;2023-11-21T05:41:37;31.80;;;14.37;;
19877;SDS011;10101;52.204;9.910;2023-11-21T05:44:04;29.30;;;13.00;;
19877;SDS011;10101;52.204;9.910;2023-11-21T05:46:31;29.37;;;13.50;;
19877;SDS011;10101;52.204;9.910;2023-11-21T05:48:58;28.53;;;13.60;;
19877;SDS011;10101;52.204;9.910;2023-11-21T05:51:26;30.50;;;14.27;;
19877;SDS011;10101;52.204;9.910;2023-11-21T05:53:53;28.63;;;13.90;;
19877;SDS011;10101;52.204;9.910;2023-11-21T05:56:19;32.43;;;15.30;;
19877;SDS011;10101;52.204;9.910;2023-11-21T05:58:46;36.30;;;14.33;;
19877;SDS011;10101;52.204;9.910;2023-11-21T06:01:13;36.17;;;14.57;;
19877;SDS011;10101;52.204;9.910;2023-11-21T06:03:40;32.13;;;13.67;;
19877;SDS011;10101;52.204;9.910;2023-11-21T06:06:07;30.27;;;13.93;;
19877;SDS011;10101;52.204;9.910;2023-11-21T06:08:35;29.63;;;13.67;;
19877;SDS011;10101;52.204;9.910;2023-11-21T06:11:02;29.30;;;14.50;;
19877;SDS011;10101;52.204;9.910;2023-11-21T06:13:29;30.33;;;14.93;;
19877;SDS011;10101;52.204;9.910;2023-11-21T06:15:56;27.53;;;12.67;;
19877;SDS011;10101;52.204;9.910;2023-11-21T06:18:23;31.90;;;13.60;;
19877;SDS011;10101;52.204;9.910;2023-11-21T06:20:50;29.87;;;14.27;;
19877;SDS011;10101;52.204;9.910;2023-11-21T06:23:18;31.03;;;13.50;;
19877;SDS011;10101;52.204;9.910;2023-11-21T06:25:46;29.83;;;13.97;;
19877;SDS011;10101;52.204;9.910;2023-11-21T06:28:13;29.83;;;14.17;;
19877;SDS011;10101;52.204;9.910;2023-11-21T06:30:42;29.27;;;13.63;;
19877;SDS011;10101;52.204;9.910;2023-11-21T06:33:10;30.10;;;13.70;;
19877;SDS011;10101;52.204;9.910;2023-11-21T06:35:37;24.13;;;12.37;;
19877;SDS011;10101;52.204;9.910;2023-11-21T06:38:03;27.40;;;13.00;;
19877;SDS011;10101;52.204;9.910;2023-11-21T06:40:30;28.17;;;13.03;;
19877;SDS011;10101;52.204;9.910;2023-11-21T06:43:00;27.30;;;13.53;;
19877;SDS011;10101;52.204;9.910;2023-11-21T06:45:26;27.83;;;12.27;;
19877;SDS011;10101;52.204;9.910;2023-11-21T06:47:53;26.43;;;13.73;;
19877;SDS011;10101;52.204;9.910;2023-11-21T06:50:20;25.67;;;13.00;;
19877;SDS011;10101;52.204;9.910;2023-11-21T06:52:47;23.43;;;12.60;;
19877;SDS011;10101;52.204;9.910;2023-11-21T06:55:14;24.90;;;12.07;;
19877;SDS011;10101;52.204;9.910;2023-11-21T06:57:43;28.77;;;12.97;;
19877;SDS011;10101;52.204;9.910;2023-11-21T07:00:11;24.50;;;12.40;;
19877;SDS011;10101;52.204;9.910;2023-11-21T07:02:39;25.93;;;13.37;;
19877;SDS011;10101;52.204;9.910;2023-11-21T07:05:06;23.27;;;11.77;;
19877;SDS011;10101;52.204;9.910;2023-11-21T07:07:33;24.10;;;12.40;;
19877;SDS011;10101;52.204;9.910;2023-11-21T07:10:02;25.50;;;12.33;;
19877;SDS011;10101;52.204;9.910;2023-11-21T07:12:29;23.97;;;12.30;;
19877;SDS011;10101;52.204;9.910;2023-11-21T07:14:56;26.40;;;11.87;;
19877;SDS011;10101;52.204;9.910;2023-11-21T07:17:24;23.73;;;12.70;;
19877;SDS011;10101;52.204;9.910;2023-11-21T07:19:51;22.93;;;12.07;;
19877;SDS011;10101;52.204;9.910;2023-11-21T07:22:17;24.73;;;11.80;;
19877;SDS011;10101;52.204;9.910;2023-11-21T07:24:47;24.07;;;11.37;;
19877;SDS011;10101;52.204;9.910;2023-11-21T07:27:15;18.33;;;10.30;;
19877;SDS011;10101;52.204;9.910;2023-11-21T07:29:42;14.27;;;7.80;;
19877;SDS011;10101;52.204;9.910;2023-11-21T07:32:09;8.03;;;4.67;;
19877;SDS011;10101;52.204;9.910;2023-11-21T07:34:37;2.73;;;2.13;;
19877;SDS011;10101;52.204;9.910;2023-11-21T07:37:03;6.20;;;3.17;;
19877;SDS011;10101;52.204;9.910;2023-11-21T07:39:30;5.20;;;2.50;;
19877;SDS011;10101;52.204;9.910;2023-11-21T07:41:57;4.93;;;2.73;;
19877;SDS011;10101;52.204;9.910;2023-11-21T07:44:23;4.70;;;3.07;;
19877;SDS011;10101;52.204;9.910;2023-11-21T07:46:51;5.17;;;2.40;;
19877;SDS011;10101;52.204;9.910;2023-11-21T07:49:22;5.60;;;3.00;;
19877;SDS011;10101;52.204;9.910;2023-11-21T07:51:50;5.13;;;2.87;;
19877;SDS011;10101;52.204;9.910;2023-11-21T07:54:17;3.80;;;2.40;;
19877;SDS011;10101;52.204;9.910;2023-11-21T07:56:43;2.97;;;2.30;;
19877;SDS011;10101;52.204;9.910;2023-11-21T07:59:10;5.70;;;2.57;;
19877;SDS011;10101;52.204;9.910;2023-11-21T08:01:37;3.80;;;2.60;;
19877;SDS011;10101;52.204;9.910;2023-11-21T08:04:05;4.80;;;2.93;;
19877;SDS011;10101;52.204;9.910;2023-11-21T08:06:33;5.37;;;2.80;;
19877;SDS011;10101;52.204;9.910;2023-11-21T08:09:01;4.00;;;3.27;;
19877;SDS011;10101;52.204;9.910;2023-11-21T08:11:28;4.87;;;3.37;;
19877;SDS011;10101;52.204;9.910;2023-11-21T08:13:57;5.27;;;3.17;;
19877;SDS011;10101;52.204;9.910;2023-11-21T08:16:24;6.17;;;3.60;;
19877;SDS011;10101;52.204;9.910;2023-11-21T08:18:50;4.10;;;3.20;;
19877;SDS011;10101;52.204;9.910;2023-11-21T08:21:17;4.73;;;3.60;;
19877;SDS011;10101;52.204;9.910;2023-11-21T08:23:45;5.87;;;3.07;;
19877;SDS011;10101;52.204;9.910;2023-11-21T08:26:13;5.93;;;3.77;;
19877;SDS011;10101;52.204;9.910;2023-11-21T08:28:42;6.00;;;4.00;;
19877;SDS011;10101;52.204;9.910;2023-11-21T08:31:09;5.90;;;3.77;;
19877;SDS011;10101;52.204;9.910;2023-11-21T08:33:35;5.67;;;3.77;;
19877;SDS011;10101;52.204;9.910;2023-11-21T08:36:06;6.50;;;4.00;;
19877;SDS011;10101;52.204;9.910;2023-11-21T08:38:34;6.97;;;4.10;;
19877;SDS011;10101;52.204;9.910;2023-11-21T08:41:02;6.33;;;4.07;;
19877;SDS011;10101;52.204;9.910;2023-11-21T08:43:33;4.60;;;3.40;;
19877;SDS011;10101;52.204;9.910;2023-11-21T08:46:00;7.63;;;5.10;;
19877;SDS011;10101;52.204;9.910;2023-11-21T08:48:28;10.50;;;5.97;;
19877;SDS011;10101;52.204;9.910;2023-11-21T08:50:54;10.20;;;6.10;;
19877;SDS011;10101;52.204;9.910;2023-11-21T08:53:21;9.60;;;6.20;;
19877;SDS011;10101;52.204;9.910;2023-11-21T08:55:48;7.97;;;5.10;;
19877;SDS011;10101;52.204;9.910;2023-11-21T08:58:15;10.10;;;6.03;;
19877;SDS011;10101;52.204;9.910;2023-11-21T09:00:43;10.77;;;6.13;;
19877;SDS011;10101;52.204;9.910;2023-11-21T09:03:11;8.07;;;5.47;;
19877;SDS011;10101;52.204;9.910;2023-11-21T09:05:38;10.27;;;5.40;;
19877;SDS011;10101;52.204;9.910;2023-11-21T09:08:05;8.60;;;5.63;;
19877;SDS011;10101;52.204;9.910;2023-11-21T09:10:32;9.63;;;5.20;;
19877;SDS011;10101;52.204;9.910;2023-11-21T09:13:00;8.67;;;5.60;;
19877;SDS011;10101;52.204;9.910;2023-11-21T09:15:27;9.77;;;5.27;;
19877;SDS011;10101;52.204;9.910;2023-11-21T09:17:56;10.97;;;5.90;;
19877;SDS011;10101;52.204;9.910;2023-11-21T09:20:23;11.53;;;6.37;;
19877;SDS011;10101;52.204;9.910;2023-11-21T09:22:50;12.43;;;6.40;;
19877;SDS011;10101;52.204;9.910;2023-11-21T09:25:16;10.93;;;6.63;;
19877;SDS011;10101;52.204;9.910;2023-11-21T09:27:44;9.00;;;5.63;;
19877;SDS011;10101;52.204;9.910;2023-11-21T09:30:11;12.07;;;6.97;;
19877;SDS011;10101;52.204;9.910;2023-11-21T09:32:39;10.67;;;6.57;;
19877;SDS011;10101;52.204;9.910;2023-11-21T09:35:08;10.13;;;6.33;;
19877;SDS011;10101;52.204;9.910;2023-11-21T09:37:35;12.87;;;7.10;;
19877;SDS011;10101;52.204;9.910;2023-11-21T09:40:03;13.63;;;7.47;;
19877;SDS011;10101;52.204;9.910;2023-11-21T09:42:32;9.57;;;6.17;;
19877;SDS011;10101;52.204;9.910;2023-11-21T09:45:05;13.10;;;7.13;;
19877;SDS011;10101;52.204;9.910;2023-11-21T09:47:40;13.17;;;7.40;;
19877;SDS011;10101;52.204;9.910;2023-11-21T09:50:10;9.47;;;6.33;;
19877;SDS011;10101;52.204;9.910;2023-11-21T09:52:41;11.63;;;6.17;;
19877;SDS011;10101;52.204;9.910;2023-11-21T09:55:15;10.00;;;6.17;;
19877;SDS011;10101;52.204;9.910;2023-11-21T09:57:46;11.20;;;6.43;;
19877;SDS011;10101;52.204;9.910;2023-11-21T10:00:21;10.17;;;6.37;;
19877;SDS011;10101;52.204;9.910;2023-11-21T10:02:49;9.83;;;6.23;;
19877;SDS011;10101;52.204;9.910;2023-11-21T10:05:19;9.23;;;5.97;;
19877;SDS011;10101;52.204;9.910;2023-11-21T10:07:47;10.20;;;6.13;;
19877;SDS011;10101;52.204;9.910;2023-11-21T10:10:16;13.23;;;6.50;;
19877;SDS011;10101;52.204;9.910;2023-11-21T10:12:45;9.90;;;6.37;;
19877;SDS011;10101;52.204;9.910;2023-11-21T10:15:18;10.67;;;5.90;;
19877;SDS011;10101;52.204;9.910;2023-11-21T10:17:48;10.40;;;5.70;;
19877;SDS011;10101;52.204;9.910;2023-11-21T10:20:19;8.47;;;5.60;;
19877;SDS011;10101;52.204;9.910;2023-11-21T10:22:46;8.37;;;5.10;;
19877;SDS011;10101;52.204;9.910;2023-11-21T10:25:13;8.33;;;5.47;;
19877;SDS011;10101;52.204;9.910;2023-11-21T10:27:40;8.73;;;4.40;;
19877;SDS011;10101;52.204;9.910;2023-11-21T10:30:08;7.30;;;4.43;;
19877;SDS011;10101;52.204;9.910;2023-11-21T10:32:37;9.37;;;4.97;;
19877;SDS011;10101;52.204;9.910;2023-11-21T10:35:05;5.97;;;4.57;;
19877;SDS011;10101;52.204;9.910;2023-11-21T10:37:36;10.03;;;4.40;;
19877;SDS011;10101;52.204;9.910;2023-11-21T10:40:05;7.60;;;4.53;;
19877;SDS011;10101;52.204;9.910;2023-11-21T10:42:32;8.50;;;4.63;;
19877;SDS011;10101;52.204;9.910;2023-11-21T10:44:59;8.17;;;4.90;;
19877;SDS011;10101;52.204;9.910;2023-11-21T10:47:28;6.13;;;4.33;;
19877;SDS011;10101;52.204;9.910;2023-11-21T10:49:57;7.17;;;4.73;;
19877;SDS011;10101;52.204;9.910;2023-11-21T10:52:26;7.63;;;4.93;;
19877;SDS011;10101;52.204;9.910;2023-11-21T10:54:55;8.73;;;4.60;;
19877;SDS011;10101;52.204;9.910;2023-11-21T10:57:24;8.33;;;5.00;;
19877;SDS011;10101;52.204;9.910;2023-11-21T10:59:51;7.83;;;4.77;;
19877;SDS011;10101;52.204;9.910;2023-11-21T11:02:23;6.60;;;4.57;;
19877;SDS011;10101;52.204;9.910;2023-11-21T11:04:53;7.97;;;4.77;;
19877;SDS011;10101;52.204;9.910;2023-11-21T11:07:20;7.10;;;4.83;;
19877;SDS011;10101;52.204;9.910;2023-11-21T11:09:52;7.03;;;5.00;;
19877;SDS011;10101;52.204;9.910;2023-11-21T11:12:20;6.87;;;4.63;;
19877;SDS011;10101;52.204;9.910;2023-11-21T11:14:47;6.80;;;4.43;;
19877;SDS011;10101;52.204;9.910;2023-11-21T11:17:15;6.57;;;4.20;;
19877;SDS011;10101;52.204;9.910;2023-11-21T11:19:44;6.90;;;4.57;;
19877;SDS011;10101;52.204;9.910;2023-11-21T11:22:15;7.50;;;4.50;;
19877;SDS011;10101;52.204;9.910;2023-11-21T11:24:57;8.33;;;4.93;;
19877;SDS011;10101;52.204;9.910;2023-11-21T11:27:54;7.27;;;4.70;;
19877;SDS011;10101;52.204;9.910;2023-11-21T11:30:33;5.93;;;4.27;;
19877;SDS011;10101;52.204;9.910;2023-11-21T11:33:09;7.67;;;3.87;;
19877;SDS011;10101;52.204;9.910;2023-11-21T11:35:52;5.37;;;3.93;;
19877;SDS011;10101;52.204;9.910;2023-11-21T11:38:23;5.37;;;4.37;;
19877;SDS011;10101;52.204;9.910;2023-11-21T11:40:53;4.77;;;3.57;;
19877;SDS011;10101;52.204;9.910;2023-11-21T11:43:30;5.60;;;4.10;;
19877;SDS011;10101;52.204;9.910;2023-11-21T11:46:05;4.90;;;3.77;;
19877;SDS011;10101;52.204;9.910;2023-11-21T11:48:34;6.50;;;4.37;;
19877;SDS011;10101;52.204;9.910;2023-11-21T11:51:05;4.67;;;3.97;;
19877;SDS011;10101;52.204;9.910;2023-11-21T11:53:38;7.53;;;4.70;;
19877;SDS011;10101;52.204;9.910;2023-11-21T11:56:25;5.57;;;3.67;;
19877;SDS011;10101;52.204;9.910;2023-11-21T11:58:57;6.33;;;4.00;;
19877;SDS011;10101;52.204;9.910;2023-11-21T12:01:27;9.13;;;4.67;;
19877;SDS011;10101;52.204;9.910;2023-11-21T12:06:56;5.70;;;4.33;;
19877;SDS011;10101;52.204;9.910;2023-11-21T12:09:25;6.93;;;4.40;;
19877;SDS011;10101;52.204;9.910;2023-11-21T12:11:53;6.97;;;4.60;;
19877;SDS011;10101;52.204;9.910;2023-11-21T12:14:21;7.67;;;4.27;;
19877;SDS011;10101;52.204;9.910;2023-11-21T12:16:49;6.37;;;4.57;;
19877;SDS011;10101;52.204;9.910;2023-11-21T12:19:16;5.90;;;4.40;;
19877;SDS011;10101;52.204;9.910;2023-11-21T12:21:43;5.57;;;4.30;;
19877;SDS011;10101;52.204;9.910;2023-11-21T12:24:10;6.37;;;4.33;;
19877;SDS011;10101;52.204;9.910;2023-11-21T12:26:38;7.60;;;4.10;;
19877;SDS011;10101;52.204;9.910;2023-11-21T12:29:05;7.53;;;3.87;;
19877;SDS011;10101;52.204;9.910;2023-11-21T12:31:34;6.93;;;4.50;;
19877;SDS011;10101;52.204;9.910;2023-11-21T12:34:01;5.53;;;3.70;;
19877;SDS011;10101;52.204;9.910;2023-11-21T12:36:28;7.37;;;4.10;;
19877;SDS011;10101;52.204;9.910;2023-11-21T12:38:55;8.00;;;4.37;;
19877;SDS011;10101;52.204;9.910;2023-11-21T12:41:22;5.13;;;4.00;;
19877;SDS011;10101;52.204;9.910;2023-11-21T12:43:49;7.90;;;4.50;;
19877;SDS011;10101;52.204;9.910;2023-11-21T12:46:16;6.67;;;4.20;;
19877;SDS011;10101;52.204;9.910;2023-11-21T12:48:44;5.57;;;3.80;;
19877;SDS011;10101;52.204;9.910;2023-11-21T12:51:12;6.33;;;4.27;;
19877;SDS011;10101;52.204;9.910;2023-11-21T12:53:41;6.20;;;3.90;;
19877;SDS011;10101;52.204;9.910;2023-11-21T12:56:09;6.37;;;3.93;;
19877;SDS011;10101;52.204;9.910;2023-11-21T12:58:36;6.87;;;3.63;;
19877;SDS011;10101;52.204;9.910;2023-11-21T13:01:05;5.97;;;3.80;;
19877;SDS011;10101;52.204;9.910;2023-11-21T13:03:37;5.97;;;3.93;;
19877;SDS011;10101;52.204;9.910;2023-11-21T13:06:06;5.43;;;3.63;;
19877;SDS011;10101;52.204;9.910;2023-11-21T13:08:33;5.80;;;3.53;;
19877;SDS011;10101;52.204;9.910;2023-11-21T13:11:00;5.07;;;3.63;;
19877;SDS011;10101;52.204;9.910;2023-11-21T13:13:28;5.60;;;3.67;;
19877;SDS011;10101;52.204;9.910;2023-11-21T13:15:56;5.97;;;4.00;;
19877;SDS011;10101;52.204;9.910;2023-11-21T13:18:27;5.10;;;3.37;;
19877;SDS011;10101;52.204;9.910;2023-11-21T13:20:56;5.27;;;3.20;;
19877;SDS011;10101;52.204;9.910;2023-11-21T13:23:25;5.33;;;3.17;;
19877;SDS011;10101;52.204;9.910;2023-11-21T13:25:54;3.70;;;3.03;;
19877;SDS011;10101;52.204;9.910;2023-11-21T13:28:21;4.07;;;2.90;;
19877;SDS011;10101;52.204;9.910;2023-11-21T13:30:49;4.23;;;2.70;;
19877;SDS011;10101;52.204;9.910;2023-11-21T13:33:17;3.40;;;2.57;;
19877;SDS011;10101;52.204;9.910;2023-11-21T13:35:47;3.63;;;2.80;;
19877;SDS011;10101;52.204;9.910;2023-11-21T13:38:16;4.40;;;3.07;;
19877;SDS011;10101;52.204;9.910;2023-11-21T13:40:49;3.50;;;2.90;;
19877;SDS011;10101;52.204;9.910;2023-11-21T13:43:19;4.10;;;2.90;;
19877;SDS011;10101;52.204;9.910;2023-11-21T13:45:49;4.07;;;3.03;;
19877;SDS011;10101;52.204;9.910;2023-11-21T13:48:20;5.03;;;3.40;;
19877;SDS011;10101;52.204;9.910;2023-11-21T13:50:53;4.57;;;3.00;;
19877;SDS011;10101;52.204;9.910;2023-11-21T13:53:23;7.93;;;3.27;;
19877;SDS011;10101;52.204;9.910;2023-11-21T13:55:52;4.30;;;3.73;;
19877;SDS011;10101;52.204;9.910;2023-11-21T13:58:21;4.97;;;3.83;;
19877;SDS011;10101;52.204;9.910;2023-11-21T14:00:51;4.73;;;3.53;;
19877;SDS011;10101;52.204;9.910;2023-11-21T14:03:21;6.67;;;3.87;;
19877;SDS011;10101;52.204;9.910;2023-11-21T14:05:50;4.90;;;3.23;;
19877;SDS011;10101;52.204;9.910;2023-11-21T14:08:18;4.70;;;4.07;;
19877;SDS011;10101;52.204;9.910;2023-11-21T14:10:46;5.47;;;3.47;;
19877;SDS011;10101;52.204;9.910;2023-11-21T14:13:17;7.63;;;3.43;;
19877;SDS011;10101;52.204;9.910;2023-11-21T14:15:44;9.27;;;3.57;;
19877;SDS011;10101;52.204;9.910;2023-11-21T14:18:15;5.97;;;4.00;;
19877;SDS011;10101;52.204;9.910;2023-11-21T14:20:51;4.57;;;3.33;;
19877;SDS011;10101;52.204;9.910;2023-11-21T14:23:17;4.83;;;3.50;;
19877;SDS011;10101;52.204;9.910;2023-11-21T14:25:46;5.40;;;3.40;;
19877;SDS011;10101;52.204;9.910;2023-11-21T14:28:13;4.67;;;3.57;;
19877;SDS011;10101;52.204;9.910;2023-11-21T14:30:41;4.17;;;3.10;;
19877;SDS011;10101;52.204;9.910;2023-11-21T14:33:08;5.93;;;2.97;;
19877;SDS011;10101;52.204;9.910;2023-11-21T14:35:36;6.00;;;3.43;;
19877;SDS011;10101;52.204;9.910;2023-11-21T14:38:03;5.47;;;3.23;;
19877;SDS011;10101;52.204;9.910;2023-11-21T14:40:31;5.63;;;3.27;;
19877;SDS011;10101;52.204;9.910;2023-11-21T14:43:00;4.60;;;2.90;;
19877;SDS011;10101;52.204;9.910;2023-11-21T14:45:30;4.63;;;3.00;;